sensor_id;sensor_type;location;lat;lon;timestamp;temperature;humidity
61392;DHT22;47261;52.892;5.738;2023-03-01T00:01:04;1.30;98.30
61392;DHT22;47261;52.892;5.738;2023-03-01T00:03:30;1.40;98.30
61392;DHT22;47261;52.892;5.738;2023-03-01T00:05:57;1.40;98.20
61392;DHT22;47261;52.892;5.738;2023-03-01T00:08:23;1.40;98.20
61392;DHT22;47261;52.892;5.738;2023-03-01T00:10:49;1.40;98.20
61392;DHT22;47261;52.892;5.738;2023-03-01T00:13:14;1.40;98.30
61392;DHT22;47261;52.892;5.738;2023-03-01T00:15:40;1.40;98.30
61392;DHT22;47261;52.892;5.738;2023-03-01T00:18:07;1.40;98.40
61392;DHT22;47261;52.892;5.738;2023-03-01T00:20:34;1.30;98.30
61392;DHT22;47261;52.892;5.738;2023-03-01T00:22:59;1.30;98.40
61392;DHT22;47261;52.892;5.738;2023-03-01T00:25:25;1.30;98.40
61392;DHT22;47261;52.892;5.738;2023-03-01T00:27:51;1.30;98.50
61392;DHT22;47261;52.892;5.738;2023-03-01T00:30:16;1.20;98.50
61392;DHT22;47261;52.892;5.738;2023-03-01T00:32:42;1.30;98.60
61392;DHT22;47261;52.892;5.738;2023-03-01T00:35:08;1.30;98.60
61392;DHT22;47261;52.892;5.738;2023-03-01T00:37:33;1.30;98.60
61392;DHT22;47261;52.892;5.738;2023-03-01T00:39:59;1.30;98.60
61392;DHT22;47261;52.892;5.738;2023-03-01T00:42:24;1.30;98.60
61392;DHT22;47261;52.892;5.738;2023-03-01T00:44:50;1.30;98.60
61392;DHT22;47261;52.892;5.738;2023-03-01T00:47:16;1.30;98.70
61392;DHT22;47261;52.892;5.738;2023-03-01T00:49:41;1.30;98.80
61392;DHT22;47261;52.892;5.738;2023-03-01T00:52:07;1.30;98.80
61392;DHT22;47261;52.892;5.738;2023-03-01T00:54:32;1.30;99.00
61392;DHT22;47261;52.892;5.738;2023-03-01T00:56:58;1.30;98.80
61392;DHT22;47261;52.892;5.738;2023-03-01T00:59:24;1.20;98.70
61392;DHT22;47261;52.892;5.738;2023-03-01T01:01:49;1.20;98.70
61392;DHT22;47261;52.892;5.738;2023-03-01T01:04:15;1.20;98.80
61392;DHT22;47261;52.892;5.738;2023-03-01T01:06:45;1.20;99.00
61392;DHT22;47261;52.892;5.738;2023-03-01T01:09:14;1.30;99.10
61392;DHT22;47261;52.892;5.738;2023-03-01T01:11:48;1.30;99.00
61392;DHT22;47261;52.892;5.738;2023-03-01T01:14:14;1.30;99.00
61392;DHT22;47261;52.892;5.738;2023-03-01T01:16:40;1.20;98.90
61392;DHT22;47261;52.892;5.738;2023-03-01T01:19:06;1.20;98.90
61392;DHT22;47261;52.892;5.738;2023-03-01T01:21:32;1.10;98.70
61392;DHT22;47261;52.892;5.738;2023-03-01T01:23:58;1.00;98.60
61392;DHT22;47261;52.892;5.738;2023-03-01T01:26:29;0.90;98.40
61392;DHT22;47261;52.892;5.738;2023-03-01T01:28:55;0.70;98.20
61392;DHT22;47261;52.892;5.738;2023-03-01T01:31:22;0.60;98.20
61392;DHT22;47261;52.892;5.738;2023-03-01T01:33:49;0.50;98.30
61392;DHT22;47261;52.892;5.738;2023-03-01T01:36:15;0.40;98.30
61392;DHT22;47261;52.892;5.738;2023-03-01T01:38:41;0.30;98.30
61392;DHT22;47261;52.892;5.738;2023-03-01T01:41:08;0.30;98.20
61392;DHT22;47261;52.892;5.738;2023-03-01T01:43:45;0.20;98.10
61392;DHT22;47261;52.892;5.738;2023-03-01T01:46:32;0.00;97.90
61392;DHT22;47261;52.892;5.738;2023-03-01T01:51:45;-0.30;97.90
61392;DHT22;47261;52.892;5.738;2023-03-01T01:54:31;-0.40;98.00
61392;DHT22;47261;52.892;5.738;2023-03-01T01:57:03;-0.50;98.10
61392;DHT22;47261;52.892;5.738;2023-03-01T01:59:30;-0.50;98.10
61392;DHT22;47261;52.892;5.738;2023-03-01T02:02:02;-0.60;98.20
61392;DHT22;47261;52.892;5.738;2023-03-01T02:04:29;-0.60;98.20
61392;DHT22;47261;52.892;5.738;2023-03-01T02:09:37;-0.80;98.20
61392;DHT22;47261;52.892;5.738;2023-03-01T02:12:04;-0.80;98.30
61392;DHT22;47261;52.892;5.738;2023-03-01T02:14:30;-0.90;98.30
61392;DHT22;47261;52.892;5.738;2023-03-01T02:16:55;-0.90;98.30
61392;DHT22;47261;52.892;5.738;2023-03-01T02:22:30;-1.10;98.30
61392;DHT22;47261;52.892;5.738;2023-03-01T02:30:22;-1.20;98.30
61392;DHT22;47261;52.892;5.738;2023-03-01T02:32:48;-1.20;98.40
61392;DHT22;47261;52.892;5.738;2023-03-01T02:35:16;-1.20;98.50
61392;DHT22;47261;52.892;5.738;2023-03-01T02:37:44;-1.20;98.60
61392;DHT22;47261;52.892;5.738;2023-03-01T02:40:16;-1.20;98.70
61392;DHT22;47261;52.892;5.738;2023-03-01T02:42:56;-1.20;98.70
61392;DHT22;47261;52.892;5.738;2023-03-01T02:45:23;-1.10;98.80
61392;DHT22;47261;52.892;5.738;2023-03-01T02:47:49;-1.10;98.70
61392;DHT22;47261;52.892;5.738;2023-03-01T02:52:57;-1.00;98.70
61392;DHT22;47261;52.892;5.738;2023-03-01T02:55:27;-1.00;98.60
61392;DHT22;47261;52.892;5.738;2023-03-01T02:57:53;-1.00;98.60
61392;DHT22;47261;52.892;5.738;2023-03-01T03:00:34;-1.00;98.70
61392;DHT22;47261;52.892;5.738;2023-03-01T03:03:01;-1.00;98.70
61392;DHT22;47261;52.892;5.738;2023-03-01T03:05:29;-0.90;98.70
61392;DHT22;47261;52.892;5.738;2023-03-01T03:07:56;-0.90;98.70
61392;DHT22;47261;52.892;5.738;2023-03-01T03:13:09;-0.90;98.60
61392;DHT22;47261;52.892;5.738;2023-03-01T03:15:35;-0.90;98.80
61392;DHT22;47261;52.892;5.738;2023-03-01T03:18:05;-0.90;98.80
61392;DHT22;47261;52.892;5.738;2023-03-01T03:20:30;-0.90;98.70
61392;DHT22;47261;52.892;5.738;2023-03-01T03:22:58;-0.90;98.70
61392;DHT22;47261;52.892;5.738;2023-03-01T03:25:25;-0.90;98.70
61392;DHT22;47261;52.892;5.738;2023-03-01T03:27:52;-0.90;98.70
61392;DHT22;47261;52.892;5.738;2023-03-01T03:30:23;-0.90;98.70
61392;DHT22;47261;52.892;5.738;2023-03-01T03:32:50;-0.90;98.50
61392;DHT22;47261;52.892;5.738;2023-03-01T03:35:27;-0.90;98.40
61392;DHT22;47261;52.892;5.738;2023-03-01T03:37:55;-1.00;98.40
61392;DHT22;47261;52.892;5.738;2023-03-01T03:40:32;-1.00;98.40
61392;DHT22;47261;52.892;5.738;2023-03-01T03:42:58;-1.10;98.40
61392;DHT22;47261;52.892;5.738;2023-03-01T03:45:24;-1.10;98.60
61392;DHT22;47261;52.892;5.738;2023-03-01T03:47:49;-1.10;98.70
61392;DHT22;47261;52.892;5.738;2023-03-01T03:50:17;-1.20;98.70
61392;DHT22;47261;52.892;5.738;2023-03-01T03:52:43;-1.20;98.70
61392;DHT22;47261;52.892;5.738;2023-03-01T03:55:11;-1.10;98.80
61392;DHT22;47261;52.892;5.738;2023-03-01T03:57:38;-1.10;98.60
61392;DHT22;47261;52.892;5.738;2023-03-01T04:00:05;-1.20;98.50
61392;DHT22;47261;52.892;5.738;2023-03-01T04:02:41;-1.20;98.50
61392;DHT22;47261;52.892;5.738;2023-03-01T04:05:08;-1.20;98.60
61392;DHT22;47261;52.892;5.738;2023-03-01T04:07:35;-1.20;98.90
61392;DHT22;47261;52.892;5.738;2023-03-01T04:10:03;-1.30;98.80
61392;DHT22;47261;52.892;5.738;2023-03-01T04:12:28;-1.20;99.00
61392;DHT22;47261;52.892;5.738;2023-03-01T04:14:54;-1.20;99.00
61392;DHT22;47261;52.892;5.738;2023-03-01T04:17:20;-1.20;99.00
61392;DHT22;47261;52.892;5.738;2023-03-01T04:19:45;-1.20;99.00
61392;DHT22;47261;52.892;5.738;2023-03-01T04:22:14;-1.20;99.10
61392;DHT22;47261;52.892;5.738;2023-03-01T04:24:43;-1.20;99.20
61392;DHT22;47261;52.892;5.738;2023-03-01T04:27:09;-1.10;99.10
61392;DHT22;47261;52.892;5.738;2023-03-01T04:29:35;-1.10;99.10
61392;DHT22;47261;52.892;5.738;2023-03-01T04:32:01;-1.20;99.00
61392;DHT22;47261;52.892;5.738;2023-03-01T04:34:28;-1.10;99.10
61392;DHT22;47261;52.892;5.738;2023-03-01T04:36:54;-1.10;99.20
61392;DHT22;47261;52.892;5.738;2023-03-01T04:39:20;-1.10;99.20
61392;DHT22;47261;52.892;5.738;2023-03-01T04:41:45;-1.00;99.20
61392;DHT22;47261;52.892;5.738;2023-03-01T04:44:11;-1.00;99.20
61392;DHT22;47261;52.892;5.738;2023-03-01T04:46:36;-1.00;99.20
61392;DHT22;47261;52.892;5.738;2023-03-01T04:49:03;-0.90;99.20
61392;DHT22;47261;52.892;5.738;2023-03-01T04:51:28;-0.90;99.30
61392;DHT22;47261;52.892;5.738;2023-03-01T04:53:54;-0.90;99.30
61392;DHT22;47261;52.892;5.738;2023-03-01T04:56:20;-0.80;99.40
61392;DHT22;47261;52.892;5.738;2023-03-01T04:58:48;-0.70;99.50
61392;DHT22;47261;52.892;5.738;2023-03-01T05:01:19;-0.70;99.50
61392;DHT22;47261;52.892;5.738;2023-03-01T05:03:46;-0.60;99.60
61392;DHT22;47261;52.892;5.738;2023-03-01T05:06:13;-0.60;99.60
61392;DHT22;47261;52.892;5.738;2023-03-01T05:08:39;-0.50;99.70
61392;DHT22;47261;52.892;5.738;2023-03-01T05:11:05;-0.50;99.60
61392;DHT22;47261;52.892;5.738;2023-03-01T05:13:34;-0.40;99.60
61392;DHT22;47261;52.892;5.738;2023-03-01T05:16:02;-0.40;99.60
61392;DHT22;47261;52.892;5.738;2023-03-01T05:18:33;-0.40;99.70
61392;DHT22;47261;52.892;5.738;2023-03-01T05:21:07;-0.30;99.70
61392;DHT22;47261;52.892;5.738;2023-03-01T05:23:34;-0.20;99.80
61392;DHT22;47261;52.892;5.738;2023-03-01T05:26:01;-0.20;99.70
61392;DHT22;47261;52.892;5.738;2023-03-01T05:28:28;-0.20;99.70
61392;DHT22;47261;52.892;5.738;2023-03-01T05:30:54;-0.10;99.70
61392;DHT22;47261;52.892;5.738;2023-03-01T05:33:20;-0.10;99.80
61392;DHT22;47261;52.892;5.738;2023-03-01T05:35:48;0.00;99.80
61392;DHT22;47261;52.892;5.738;2023-03-01T05:38:14;0.00;99.80
61392;DHT22;47261;52.892;5.738;2023-03-01T05:40:45;0.00;99.80
61392;DHT22;47261;52.892;5.738;2023-03-01T05:43:12;0.10;99.70
61392;DHT22;47261;52.892;5.738;2023-03-01T05:45:39;0.10;99.60
61392;DHT22;47261;52.892;5.738;2023-03-01T05:48:06;0.10;99.60
61392;DHT22;47261;52.892;5.738;2023-03-01T05:50:35;0.10;99.60
61392;DHT22;47261;52.892;5.738;2023-03-01T05:53:06;0.00;99.60
61392;DHT22;47261;52.892;5.738;2023-03-01T05:55:34;0.00;99.60
61392;DHT22;47261;52.892;5.738;2023-03-01T05:58:01;0.00;99.60
61392;DHT22;47261;52.892;5.738;2023-03-01T06:00:27;0.00;99.70
61392;DHT22;47261;52.892;5.738;2023-03-01T06:02:54;-0.10;99.60
61392;DHT22;47261;52.892;5.738;2023-03-01T06:05:20;-0.10;99.60
61392;DHT22;47261;52.892;5.738;2023-03-01T06:07:46;-0.10;99.60
61392;DHT22;47261;52.892;5.738;2023-03-01T06:10:13;-0.20;99.40
61392;DHT22;47261;52.892;5.738;2023-03-01T06:12:40;-0.20;99.30
61392;DHT22;47261;52.892;5.738;2023-03-01T06:15:07;-0.20;99.30
61392;DHT22;47261;52.892;5.738;2023-03-01T06:17:36;-0.30;99.60
61392;DHT22;47261;52.892;5.738;2023-03-01T06:20:18;-0.30;99.40
61392;DHT22;47261;52.892;5.738;2023-03-01T06:22:45;-0.40;99.40
61392;DHT22;47261;52.892;5.738;2023-03-01T06:25:13;-0.40;99.40
61392;DHT22;47261;52.892;5.738;2023-03-01T06:27:39;-0.50;99.50
61392;DHT22;47261;52.892;5.738;2023-03-01T06:30:06;-0.50;99.70
61392;DHT22;47261;52.892;5.738;2023-03-01T06:32:32;-0.50;99.80
61392;DHT22;47261;52.892;5.738;2023-03-01T06:34:58;-0.50;99.90
61392;DHT22;47261;52.892;5.738;2023-03-01T06:37:24;-0.50;99.90
61392;DHT22;47261;52.892;5.738;2023-03-01T06:39:50;-0.40;99.80
61392;DHT22;47261;52.892;5.738;2023-03-01T06:42:16;-0.40;99.90
61392;DHT22;47261;52.892;5.738;2023-03-01T06:44:42;-0.40;99.80
61392;DHT22;47261;52.892;5.738;2023-03-01T06:47:07;-0.40;99.80
61392;DHT22;47261;52.892;5.738;2023-03-01T06:49:33;-0.40;99.70
61392;DHT22;47261;52.892;5.738;2023-03-01T06:51:58;-0.40;99.70
61392;DHT22;47261;52.892;5.738;2023-03-01T06:54:24;-0.50;99.80
61392;DHT22;47261;52.892;5.738;2023-03-01T06:56:50;-0.50;99.90
61392;DHT22;47261;52.892;5.738;2023-03-01T06:59:16;-0.50;99.90
61392;DHT22;47261;52.892;5.738;2023-03-01T07:01:43;-0.40;99.90
61392;DHT22;47261;52.892;5.738;2023-03-01T07:04:10;-0.40;99.90
61392;DHT22;47261;52.892;5.738;2023-03-01T07:06:35;-0.30;99.90
61392;DHT22;47261;52.892;5.738;2023-03-01T07:09:01;-0.30;99.90
61392;DHT22;47261;52.892;5.738;2023-03-01T07:11:27;-0.20;99.90
61392;DHT22;47261;52.892;5.738;2023-03-01T07:13:52;-0.20;99.80
61392;DHT22;47261;52.892;5.738;2023-03-01T07:16:18;-0.20;99.80
61392;DHT22;47261;52.892;5.738;2023-03-01T07:18:45;-0.10;99.80
61392;DHT22;47261;52.892;5.738;2023-03-01T07:21:12;-0.10;99.80
61392;DHT22;47261;52.892;5.738;2023-03-01T07:23:38;0.00;99.70
61392;DHT22;47261;52.892;5.738;2023-03-01T07:26:04;-0.10;99.70
61392;DHT22;47261;52.892;5.738;2023-03-01T07:28:30;-0.10;99.70
61392;DHT22;47261;52.892;5.738;2023-03-01T07:31:01;-0.10;99.80
61392;DHT22;47261;52.892;5.738;2023-03-01T07:33:27;-0.10;99.90
61392;DHT22;47261;52.892;5.738;2023-03-01T07:36:03;0.00;99.90
61392;DHT22;47261;52.892;5.738;2023-03-01T07:38:29;0.00;99.90
61392;DHT22;47261;52.892;5.738;2023-03-01T07:41:00;0.10;99.90
61392;DHT22;47261;52.892;5.738;2023-03-01T07:43:27;0.20;99.90
61392;DHT22;47261;52.892;5.738;2023-03-01T07:45:52;0.30;99.90
61392;DHT22;47261;52.892;5.738;2023-03-01T07:48:18;0.30;99.90
61392;DHT22;47261;52.892;5.738;2023-03-01T07:50:44;0.50;99.90
61392;DHT22;47261;52.892;5.738;2023-03-01T07:53:10;0.60;99.90
61392;DHT22;47261;52.892;5.738;2023-03-01T07:55:36;0.60;99.90
61392;DHT22;47261;52.892;5.738;2023-03-01T07:58:02;0.70;99.90
61392;DHT22;47261;52.892;5.738;2023-03-01T08:00:27;0.80;99.90
61392;DHT22;47261;52.892;5.738;2023-03-01T08:02:53;0.90;99.90
61392;DHT22;47261;52.892;5.738;2023-03-01T08:05:18;1.00;99.90
61392;DHT22;47261;52.892;5.738;2023-03-01T08:07:44;1.20;99.90
61392;DHT22;47261;52.892;5.738;2023-03-01T08:10:10;1.20;99.90
61392;DHT22;47261;52.892;5.738;2023-03-01T08:12:36;1.40;99.90
61392;DHT22;47261;52.892;5.738;2023-03-01T08:15:02;1.50;99.90
61392;DHT22;47261;52.892;5.738;2023-03-01T08:17:27;1.60;99.90
61392;DHT22;47261;52.892;5.738;2023-03-01T08:19:53;1.80;99.90
61392;DHT22;47261;52.892;5.738;2023-03-01T08:22:19;1.90;99.90
61392;DHT22;47261;52.892;5.738;2023-03-01T08:24:44;2.00;99.90
61392;DHT22;47261;52.892;5.738;2023-03-01T08:27:10;2.20;99.90
61392;DHT22;47261;52.892;5.738;2023-03-01T08:29:37;2.30;99.90
61392;DHT22;47261;52.892;5.738;2023-03-01T08:32:03;2.40;99.90
61392;DHT22;47261;52.892;5.738;2023-03-01T08:34:28;2.60;99.90
61392;DHT22;47261;52.892;5.738;2023-03-01T08:36:54;2.70;99.90
61392;DHT22;47261;52.892;5.738;2023-03-01T08:39:21;2.90;99.90
61392;DHT22;47261;52.892;5.738;2023-03-01T08:41:47;3.10;99.90
61392;DHT22;47261;52.892;5.738;2023-03-01T08:44:14;3.30;99.90
61392;DHT22;47261;52.892;5.738;2023-03-01T08:46:43;3.50;99.90
61392;DHT22;47261;52.892;5.738;2023-03-01T08:49:11;3.70;99.90
61392;DHT22;47261;52.892;5.738;2023-03-01T08:51:37;3.80;99.90
61392;DHT22;47261;52.892;5.738;2023-03-01T08:54:05;3.90;99.90
61392;DHT22;47261;52.892;5.738;2023-03-01T08:56:31;4.10;99.90
61392;DHT22;47261;52.892;5.738;2023-03-01T08:58:56;4.30;99.90
61392;DHT22;47261;52.892;5.738;2023-03-01T09:01:22;4.50;99.90
61392;DHT22;47261;52.892;5.738;2023-03-01T09:03:48;4.80;99.90
61392;DHT22;47261;52.892;5.738;2023-03-01T09:06:14;5.00;99.90
61392;DHT22;47261;52.892;5.738;2023-03-01T09:08:43;5.20;99.90
61392;DHT22;47261;52.892;5.738;2023-03-01T09:11:11;5.30;99.90
61392;DHT22;47261;52.892;5.738;2023-03-01T09:13:37;5.50;99.90
61392;DHT22;47261;52.892;5.738;2023-03-01T09:16:05;5.60;99.90
61392;DHT22;47261;52.892;5.738;2023-03-01T09:18:32;5.80;99.90
61392;DHT22;47261;52.892;5.738;2023-03-01T09:21:17;6.00;99.90
61392;DHT22;47261;52.892;5.738;2023-03-01T09:23:45;6.00;99.40
61392;DHT22;47261;52.892;5.738;2023-03-01T09:26:17;6.10;99.30
61392;DHT22;47261;52.892;5.738;2023-03-01T09:28:45;6.20;99.10
61392;DHT22;47261;52.892;5.738;2023-03-01T09:31:12;6.30;99.10
61392;DHT22;47261;52.892;5.738;2023-03-01T09:33:39;6.30;98.80
61392;DHT22;47261;52.892;5.738;2023-03-01T09:36:07;6.40;98.60
61392;DHT22;47261;52.892;5.738;2023-03-01T09:38:33;6.40;98.40
61392;DHT22;47261;52.892;5.738;2023-03-01T09:41:00;6.50;98.30
61392;DHT22;47261;52.892;5.738;2023-03-01T09:46:10;6.60;97.70
61392;DHT22;47261;52.892;5.738;2023-03-01T09:48:46;6.60;97.60
61392;DHT22;47261;52.892;5.738;2023-03-01T09:51:18;6.70;97.40
61392;DHT22;47261;52.892;5.738;2023-03-01T09:53:44;6.60;97.20
61392;DHT22;47261;52.892;5.738;2023-03-01T09:56:17;6.60;97.00
61392;DHT22;47261;52.892;5.738;2023-03-01T09:58:50;6.70;96.80
61392;DHT22;47261;52.892;5.738;2023-03-01T10:01:47;6.70;96.70
61392;DHT22;47261;52.892;5.738;2023-03-01T10:09:38;6.80;96.40
61392;DHT22;47261;52.892;5.738;2023-03-01T10:12:27;6.80;96.40
61392;DHT22;47261;52.892;5.738;2023-03-01T10:15:14;6.90;96.40
61392;DHT22;47261;52.892;5.738;2023-03-01T10:17:55;7.00;96.40
61392;DHT22;47261;52.892;5.738;2023-03-01T10:23:08;7.20;96.10
61392;DHT22;47261;52.892;5.738;2023-03-01T10:25:54;7.30;96.00
61392;DHT22;47261;52.892;5.738;2023-03-01T10:31:24;7.60;95.40
61392;DHT22;47261;52.892;5.738;2023-03-01T10:33:53;7.80;95.40
61392;DHT22;47261;52.892;5.738;2023-03-01T10:36:21;7.90;95.20
61392;DHT22;47261;52.892;5.738;2023-03-01T10:38:53;8.20;95.00
61392;DHT22;47261;52.892;5.738;2023-03-01T10:41:21;8.40;94.60
61392;DHT22;47261;52.892;5.738;2023-03-01T10:43:51;8.70;94.10
61392;DHT22;47261;52.892;5.738;2023-03-01T10:46:33;8.90;93.60
61392;DHT22;47261;52.892;5.738;2023-03-01T10:51:43;9.00;92.80
61392;DHT22;47261;52.892;5.738;2023-03-01T10:54:30;9.10;92.90
61392;DHT22;47261;52.892;5.738;2023-03-01T10:57:02;9.20;91.90
61392;DHT22;47261;52.892;5.738;2023-03-01T11:02:20;9.30;91.40
61392;DHT22;47261;52.892;5.738;2023-03-01T11:05:21;9.30;90.90
61392;DHT22;47261;52.892;5.738;2023-03-01T11:07:53;9.20;90.70
61392;DHT22;47261;52.892;5.738;2023-03-01T11:10:32;9.20;90.90
61392;DHT22;47261;52.892;5.738;2023-03-01T11:13:16;9.30;90.70
61392;DHT22;47261;52.892;5.738;2023-03-01T11:15:43;9.20;89.90
61392;DHT22;47261;52.892;5.738;2023-03-01T11:18:23;9.20;90.10
61392;DHT22;47261;52.892;5.738;2023-03-01T11:20:51;9.20;90.00
61392;DHT22;47261;52.892;5.738;2023-03-01T11:23:20;9.30;89.60
61392;DHT22;47261;52.892;5.738;2023-03-01T11:25:52;9.30;88.90
61392;DHT22;47261;52.892;5.738;2023-03-01T11:28:20;9.30;87.80
61392;DHT22;47261;52.892;5.738;2023-03-01T11:31:06;9.30;87.70
61392;DHT22;47261;52.892;5.738;2023-03-01T11:33:57;9.40;86.30
61392;DHT22;47261;52.892;5.738;2023-03-01T11:36:43;9.40;86.20
61392;DHT22;47261;52.892;5.738;2023-03-01T11:41:56;9.50;85.10
61392;DHT22;47261;52.892;5.738;2023-03-01T11:44:27;9.50;84.70
61392;DHT22;47261;52.892;5.738;2023-03-01T11:47:33;9.60;84.60
61392;DHT22;47261;52.892;5.738;2023-03-01T12:03:47;9.50;81.10
61392;DHT22;47261;52.892;5.738;2023-03-01T12:14:43;9.40;77.60
61392;DHT22;47261;52.892;5.738;2023-03-01T12:20:32;9.30;78.40
61392;DHT22;47261;52.892;5.738;2023-03-01T12:31:19;9.30;76.80
61392;DHT22;47261;52.892;5.738;2023-03-01T12:36:39;9.30;77.20
61392;DHT22;47261;52.892;5.738;2023-03-01T12:49:48;9.40;75.40
61392;DHT22;47261;52.892;5.738;2023-03-01T12:55:09;9.40;74.90
61392;DHT22;47261;52.892;5.738;2023-03-01T12:57:49;9.50;74.70
61392;DHT22;47261;52.892;5.738;2023-03-01T13:00:35;9.50;74.80
61392;DHT22;47261;52.892;5.738;2023-03-01T13:03:26;9.60;74.80
61392;DHT22;47261;52.892;5.738;2023-03-01T13:08:58;9.80;72.30
61392;DHT22;47261;52.892;5.738;2023-03-01T13:11:28;9.80;72.00
61392;DHT22;47261;52.892;5.738;2023-03-01T13:16:49;9.90;72.30
61392;DHT22;47261;52.892;5.738;2023-03-01T13:21:51;10.00;72.50
61392;DHT22;47261;52.892;5.738;2023-03-01T13:24:40;10.00;71.60
61392;DHT22;47261;52.892;5.738;2023-03-01T13:29:45;10.00;71.70
61392;DHT22;47261;52.892;5.738;2023-03-01T13:32:28;10.00;70.90
61392;DHT22;47261;52.892;5.738;2023-03-01T13:34:55;10.00;71.20
61392;DHT22;47261;52.892;5.738;2023-03-01T13:37:24;10.00;71.70
61392;DHT22;47261;52.892;5.738;2023-03-01T13:39:51;10.00;72.10
61392;DHT22;47261;52.892;5.738;2023-03-01T13:42:38;9.90;71.40
61392;DHT22;47261;52.892;5.738;2023-03-01T13:47:41;9.70;69.80
61392;DHT22;47261;52.892;5.738;2023-03-01T13:50:19;9.60;70.10
61392;DHT22;47261;52.892;5.738;2023-03-01T13:53:01;9.60;70.50
61392;DHT22;47261;52.892;5.738;2023-03-01T13:58:14;9.40;69.60
61392;DHT22;47261;52.892;5.738;2023-03-01T14:00:40;9.30;70.10
61392;DHT22;47261;52.892;5.738;2023-03-01T14:03:17;9.30;71.20
61392;DHT22;47261;52.892;5.738;2023-03-01T14:08:26;9.30;70.40
61392;DHT22;47261;52.892;5.738;2023-03-01T14:17:19;9.30;71.10
61392;DHT22;47261;52.892;5.738;2023-03-01T14:20:00;9.30;71.70
61392;DHT22;47261;52.892;5.738;2023-03-01T14:22:29;9.20;70.00
61392;DHT22;47261;52.892;5.738;2023-03-01T14:24:59;9.20;70.10
61392;DHT22;47261;52.892;5.738;2023-03-01T14:27:32;9.20;70.50
61392;DHT22;47261;52.892;5.738;2023-03-01T14:30:12;9.30;70.40
61392;DHT22;47261;52.892;5.738;2023-03-01T14:32:40;9.20;70.60
61392;DHT22;47261;52.892;5.738;2023-03-01T14:35:35;9.20;70.70
61392;DHT22;47261;52.892;5.738;2023-03-01T14:38:02;9.30;71.70
61392;DHT22;47261;52.892;5.738;2023-03-01T14:40:32;9.40;72.40
61392;DHT22;47261;52.892;5.738;2023-03-01T14:43:00;9.40;72.70
61392;DHT22;47261;52.892;5.738;2023-03-01T14:45:29;9.40;72.10
61392;DHT22;47261;52.892;5.738;2023-03-01T14:48:00;9.40;72.30
61392;DHT22;47261;52.892;5.738;2023-03-01T14:50:29;9.40;72.50
61392;DHT22;47261;52.892;5.738;2023-03-01T14:52:58;9.40;72.00
61392;DHT22;47261;52.892;5.738;2023-03-01T14:55:34;9.30;72.20
61392;DHT22;47261;52.892;5.738;2023-03-01T14:58:03;9.30;72.70
61392;DHT22;47261;52.892;5.738;2023-03-01T15:00:32;9.40;72.70
61392;DHT22;47261;52.892;5.738;2023-03-01T15:03:46;9.40;72.70
61392;DHT22;47261;52.892;5.738;2023-03-01T15:05:46;9.40;72.80
61392;DHT22;47261;52.892;5.738;2023-03-01T15:08:24;9.40;72.70
61392;DHT22;47261;52.892;5.738;2023-03-01T15:11:17;9.50;73.00
61392;DHT22;47261;52.892;5.738;2023-03-01T15:13:43;9.60;73.10
61392;DHT22;47261;52.892;5.738;2023-03-01T15:16:17;9.60;73.00
61392;DHT22;47261;52.892;5.738;2023-03-01T15:18:49;9.60;72.80
61392;DHT22;47261;52.892;5.738;2023-03-01T15:21:18;9.60;72.40
61392;DHT22;47261;52.892;5.738;2023-03-01T15:23:54;9.50;71.80
61392;DHT22;47261;52.892;5.738;2023-03-01T15:26:27;9.50;72.10
61392;DHT22;47261;52.892;5.738;2023-03-01T15:28:55;9.50;73.00
61392;DHT22;47261;52.892;5.738;2023-03-01T15:31:35;9.50;73.70
61392;DHT22;47261;52.892;5.738;2023-03-01T15:36:49;9.40;74.80
61392;DHT22;47261;52.892;5.738;2023-03-01T15:39:37;9.50;75.40
61392;DHT22;47261;52.892;5.738;2023-03-01T15:45:19;9.60;75.10
61392;DHT22;47261;52.892;5.738;2023-03-01T15:48:04;9.70;74.40
61392;DHT22;47261;52.892;5.738;2023-03-01T15:50:34;9.80;73.40
61392;DHT22;47261;52.892;5.738;2023-03-01T15:53:04;9.80;73.90
61392;DHT22;47261;52.892;5.738;2023-03-01T15:55:32;9.80;73.30
61392;DHT22;47261;52.892;5.738;2023-03-01T15:58:22;9.80;72.30
61392;DHT22;47261;52.892;5.738;2023-03-01T16:00:49;9.60;71.50
61392;DHT22;47261;52.892;5.738;2023-03-01T16:03:17;9.50;71.40
61392;DHT22;47261;52.892;5.738;2023-03-01T16:05:47;9.40;71.50
61392;DHT22;47261;52.892;5.738;2023-03-01T16:08:13;9.30;71.50
61392;DHT22;47261;52.892;5.738;2023-03-01T16:10:40;9.20;71.70
61392;DHT22;47261;52.892;5.738;2023-03-01T16:13:07;9.10;72.10
61392;DHT22;47261;52.892;5.738;2023-03-01T16:15:34;9.00;72.40
61392;DHT22;47261;52.892;5.738;2023-03-01T16:18:01;8.90;72.60
61392;DHT22;47261;52.892;5.738;2023-03-01T16:20:28;8.80;72.90
61392;DHT22;47261;52.892;5.738;2023-03-01T16:22:55;8.80;73.40
61392;DHT22;47261;52.892;5.738;2023-03-01T16:25:23;8.70;73.70
61392;DHT22;47261;52.892;5.738;2023-03-01T16:27:50;8.70;74.10
61392;DHT22;47261;52.892;5.738;2023-03-01T16:30:18;8.60;74.50
61392;DHT22;47261;52.892;5.738;2023-03-01T16:32:46;8.60;75.10
61392;DHT22;47261;52.892;5.738;2023-03-01T16:35:14;8.60;75.40
61392;DHT22;47261;52.892;5.738;2023-03-01T16:37:40;8.50;75.60
61392;DHT22;47261;52.892;5.738;2023-03-01T16:40:14;8.50;75.80
61392;DHT22;47261;52.892;5.738;2023-03-01T16:42:41;8.40;76.00
61392;DHT22;47261;52.892;5.738;2023-03-01T16:45:09;8.40;76.10
61392;DHT22;47261;52.892;5.738;2023-03-01T16:47:35;8.30;76.40
61392;DHT22;47261;52.892;5.738;2023-03-01T16:50:01;8.30;76.80
61392;DHT22;47261;52.892;5.738;2023-03-01T16:52:27;8.20;77.00
61392;DHT22;47261;52.892;5.738;2023-03-01T16:54:52;8.10;77.00
61392;DHT22;47261;52.892;5.738;2023-03-01T16:57:18;8.00;77.30
61392;DHT22;47261;52.892;5.738;2023-03-01T16:59:44;7.90;77.50
61392;DHT22;47261;52.892;5.738;2023-03-01T17:02:11;7.90;78.00
61392;DHT22;47261;52.892;5.738;2023-03-01T17:04:38;7.80;78.30
61392;DHT22;47261;52.892;5.738;2023-03-01T17:07:04;7.70;78.40
61392;DHT22;47261;52.892;5.738;2023-03-01T17:09:29;7.60;78.60
61392;DHT22;47261;52.892;5.738;2023-03-01T17:11:55;7.50;78.80
61392;DHT22;47261;52.892;5.738;2023-03-01T17:14:20;7.40;79.20
61392;DHT22;47261;52.892;5.738;2023-03-01T17:16:46;7.30;79.50
61392;DHT22;47261;52.892;5.738;2023-03-01T17:19:12;7.30;79.90
61392;DHT22;47261;52.892;5.738;2023-03-01T17:21:43;7.20;80.00
61392;DHT22;47261;52.892;5.738;2023-03-01T17:24:09;7.10;80.30
61392;DHT22;47261;52.892;5.738;2023-03-01T17:26:35;7.10;80.50
61392;DHT22;47261;52.892;5.738;2023-03-01T17:29:01;7.00;81.40
61392;DHT22;47261;52.892;5.738;2023-03-01T17:31:28;7.00;81.00
61392;DHT22;47261;52.892;5.738;2023-03-01T17:33:53;6.90;81.20
61392;DHT22;47261;52.892;5.738;2023-03-01T17:36:19;6.80;81.40
61392;DHT22;47261;52.892;5.738;2023-03-01T17:38:45;6.70;81.70
61392;DHT22;47261;52.892;5.738;2023-03-01T17:41:11;6.60;81.90
61392;DHT22;47261;52.892;5.738;2023-03-01T17:43:37;6.50;82.30
61392;DHT22;47261;52.892;5.738;2023-03-01T17:46:03;6.40;82.50
61392;DHT22;47261;52.892;5.738;2023-03-01T17:48:28;6.30;82.70
61392;DHT22;47261;52.892;5.738;2023-03-01T17:50:54;6.20;82.90
61392;DHT22;47261;52.892;5.738;2023-03-01T17:53:20;6.10;83.10
61392;DHT22;47261;52.892;5.738;2023-03-01T17:55:46;6.00;83.40